sensor_id;sensor_type;location;lat;lon;timestamp;temperature;humidity
7694;DHT22;3889;48.162;11.510;2022-12-29T00:00:14;4.50;99.90
7694;DHT22;3889;48.162;11.510;2022-12-29T00:02:42;4.50;99.90
7694;DHT22;3889;48.162;11.510;2022-12-29T00:05:10;4.50;99.90
7694;DHT22;3889;48.162;11.510;2022-12-29T00:07:38;4.60;99.90
7694;DHT22;3889;48.162;11.510;2022-12-29T00:10:07;4.60;99.90
7694;DHT22;3889;48.162;11.510;2022-12-29T00:12:35;4.60;99.90
7694;DHT22;3889;48.162;11.510;2022-12-29T00:15:37;4.60;99.90
7694;DHT22;3889;48.162;11.510;2022-12-29T00:18:05;4.60;99.90
7694;DHT22;3889;48.162;11.510;2022-12-29T00:20:34;4.60;99.90
7694;DHT22;3889;48.162;11.510;2022-12-29T00:23:20;4.70;99.90
7694;DHT22;3889;48.162;11.510;2022-12-29T00:26:12;4.70;99.90
7694;DHT22;3889;48.162;11.510;2022-12-29T00:29:12;4.70;99.90
7694;DHT22;3889;48.162;11.510;2022-12-29T00:31:59;4.80;99.90
7694;DHT22;3889;48.162;11.510;2022-12-29T00:34:44;4.90;99.90
7694;DHT22;3889;48.162;11.510;2022-12-29T00:37:26;4.90;99.90
7694;DHT22;3889;48.162;11.510;2022-12-29T00:40:08;4.90;99.90
7694;DHT22;3889;48.162;11.510;2022-12-29T00:42:54;4.80;99.90
7694;DHT22;3889;48.162;11.510;2022-12-29T00:45:40;4.80;99.90
7694;DHT22;3889;48.162;11.510;2022-12-29T00:48:09;4.80;99.90
7694;DHT22;3889;48.162;11.510;2022-12-29T00:50:37;4.70;99.90
7694;DHT22;3889;48.162;11.510;2022-12-29T00:53:04;4.80;99.90
7694;DHT22;3889;48.162;11.510;2022-12-29T00:55:36;4.70;99.90
7694;DHT22;3889;48.162;11.510;2022-12-29T00:58:04;4.60;99.90
7694;DHT22;3889;48.162;11.510;2022-12-29T01:00:32;4.60;99.90
7694;DHT22;3889;48.162;11.510;2022-12-29T01:03:00;4.60;99.90
7694;DHT22;3889;48.162;11.510;2022-12-29T01:05:30;4.60;99.90
7694;DHT22;3889;48.162;11.510;2022-12-29T01:07:57;4.50;99.90
7694;DHT22;3889;48.162;11.510;2022-12-29T01:10:25;4.50;99.90
7694;DHT22;3889;48.162;11.510;2022-12-29T01:12:52;4.50;99.90
7694;DHT22;3889;48.162;11.510;2022-12-29T01:15:20;4.50;99.90
7694;DHT22;3889;48.162;11.510;2022-12-29T01:17:48;4.40;99.90
7694;DHT22;3889;48.162;11.510;2022-12-29T01:20:16;4.40;99.90
7694;DHT22;3889;48.162;11.510;2022-12-29T01:22:45;4.40;99.90
7694;DHT22;3889;48.162;11.510;2022-12-29T01:25:13;4.40;99.90
7694;DHT22;3889;48.162;11.510;2022-12-29T01:27:41;4.40;99.90
7694;DHT22;3889;48.162;11.510;2022-12-29T01:30:09;4.40;99.90
7694;DHT22;3889;48.162;11.510;2022-12-29T01:32:37;4.40;99.90
7694;DHT22;3889;48.162;11.510;2022-12-29T01:35:06;4.50;99.90
7694;DHT22;3889;48.162;11.510;2022-12-29T01:37:34;4.50;99.90
7694;DHT22;3889;48.162;11.510;2022-12-29T01:40:03;4.50;99.90
7694;DHT22;3889;48.162;11.510;2022-12-29T01:42:32;4.50;99.90
7694;DHT22;3889;48.162;11.510;2022-12-29T01:45:01;4.50;99.90
7694;DHT22;3889;48.162;11.510;2022-12-29T01:47:33;4.50;99.90
7694;DHT22;3889;48.162;11.510;2022-12-29T01:50:06;4.60;99.90
7694;DHT22;3889;48.162;11.510;2022-12-29T01:52:38;4.50;99.90
7694;DHT22;3889;48.162;11.510;2022-12-29T01:55:11;4.50;99.90
7694;DHT22;3889;48.162;11.510;2022-12-29T01:57:42;4.50;99.90
7694;DHT22;3889;48.162;11.510;2022-12-29T02:00:13;4.60;99.90
7694;DHT22;3889;48.162;11.510;2022-12-29T02:02:45;4.70;99.90
7694;DHT22;3889;48.162;11.510;2022-12-29T02:05:18;4.70;99.90
7694;DHT22;3889;48.162;11.510;2022-12-29T02:07:48;4.70;99.90
7694;DHT22;3889;48.162;11.510;2022-12-29T02:10:18;4.80;99.90
7694;DHT22;3889;48.162;11.510;2022-12-29T02:12:46;4.80;99.90
7694;DHT22;3889;48.162;11.510;2022-12-29T02:15:15;4.80;99.90
7694;DHT22;3889;48.162;11.510;2022-12-29T02:18:00;4.80;99.90
7694;DHT22;3889;48.162;11.510;2022-12-29T02:20:48;4.80;99.90
7694;DHT22;3889;48.162;11.510;2022-12-29T02:23:35;4.80;99.90
7694;DHT22;3889;48.162;11.510;2022-12-29T02:26:23;4.80;99.90
7694;DHT22;3889;48.162;11.510;2022-12-29T02:29:15;4.80;99.90
7694;DHT22;3889;48.162;11.510;2022-12-29T02:31:53;4.90;99.90
7694;DHT22;3889;48.162;11.510;2022-12-29T02:34:30;4.90;99.90
7694;DHT22;3889;48.162;11.510;2022-12-29T02:37:03;5.00;99.90
7694;DHT22;3889;48.162;11.510;2022-12-29T02:39:37;5.00;99.90
7694;DHT22;3889;48.162;11.510;2022-12-29T02:42:10;5.10;99.90
7694;DHT22;3889;48.162;11.510;2022-12-29T02:44:50;5.10;99.90
7694;DHT22;3889;48.162;11.510;2022-12-29T02:47:26;5.10;99.90
7694;DHT22;3889;48.162;11.510;2022-12-29T02:49:59;5.10;99.90
7694;DHT22;3889;48.162;11.510;2022-12-29T02:52:32;5.10;99.90
7694;DHT22;3889;48.162;11.510;2022-12-29T02:55:01;5.10;99.90
7694;DHT22;3889;48.162;11.510;2022-12-29T02:57:30;5.10;99.90
7694;DHT22;3889;48.162;11.510;2022-12-29T03:00:03;5.10;99.90
7694;DHT22;3889;48.162;11.510;2022-12-29T03:02:44;5.20;99.90
7694;DHT22;3889;48.162;11.510;2022-12-29T03:05:25;5.20;99.90
7694;DHT22;3889;48.162;11.510;2022-12-29T03:08:03;5.20;99.90
7694;DHT22;3889;48.162;11.510;2022-12-29T03:10:41;5.30;99.90
7694;DHT22;3889;48.162;11.510;2022-12-29T03:13:19;5.40;99.90
7694;DHT22;3889;48.162;11.510;2022-12-29T03:16:17;5.40;99.90
7694;DHT22;3889;48.162;11.510;2022-12-29T03:18:55;5.50;99.90
7694;DHT22;3889;48.162;11.510;2022-12-29T03:21:29;5.50;99.90
7694;DHT22;3889;48.162;11.510;2022-12-29T03:24:13;5.60;99.90
7694;DHT22;3889;48.162;11.510;2022-12-29T03:26:41;5.60;99.90
7694;DHT22;3889;48.162;11.510;2022-12-29T03:29:11;5.70;99.90
7694;DHT22;3889;48.162;11.510;2022-12-29T03:31:41;5.70;99.90
7694;DHT22;3889;48.162;11.510;2022-12-29T03:34:12;5.80;99.90
7694;DHT22;3889;48.162;11.510;2022-12-29T03:36:44;5.90;99.90
7694;DHT22;3889;48.162;11.510;2022-12-29T03:39:14;5.90;99.90
7694;DHT22;3889;48.162;11.510;2022-12-29T03:41:44;6.00;99.90
7694;DHT22;3889;48.162;11.510;2022-12-29T03:44:13;6.00;99.90
7694;DHT22;3889;48.162;11.510;2022-12-29T03:46:41;6.10;99.90
7694;DHT22;3889;48.162;11.510;2022-12-29T03:49:10;6.10;99.90
7694;DHT22;3889;48.162;11.510;2022-12-29T03:51:38;6.20;99.90
7694;DHT22;3889;48.162;11.510;2022-12-29T03:54:06;6.20;99.90
7694;DHT22;3889;48.162;11.510;2022-12-29T03:56:34;6.20;99.90
7694;DHT22;3889;48.162;11.510;2022-12-29T03:59:02;6.20;99.90
7694;DHT22;3889;48.162;11.510;2022-12-29T04:01:29;6.30;99.90
7694;DHT22;3889;48.162;11.510;2022-12-29T04:03:57;6.20;99.90
7694;DHT22;3889;48.162;11.510;2022-12-29T04:06:26;6.20;99.90
7694;DHT22;3889;48.162;11.510;2022-12-29T04:08:54;6.20;99.90
7694;DHT22;3889;48.162;11.510;2022-12-29T04:11:22;6.20;99.90
7694;DHT22;3889;48.162;11.510;2022-12-29T04:13:58;6.30;99.90
7694;DHT22;3889;48.162;11.510;2022-12-29T04:16:26;6.30;99.90
7694;DHT22;3889;48.162;11.510;2022-12-29T04:18:54;6.20;99.90
7694;DHT22;3889;48.162;11.510;2022-12-29T04:21:21;6.30;99.90
7694;DHT22;3889;48.162;11.510;2022-12-29T04:23:52;6.20;99.90
7694;DHT22;3889;48.162;11.510;2022-12-29T04:26:20;6.20;99.90
7694;DHT22;3889;48.162;11.510;2022-12-29T04:28:47;6.30;99.90
7694;DHT22;3889;48.162;11.510;2022-12-29T04:31:15;6.20;99.90
7694;DHT22;3889;48.162;11.510;2022-12-29T04:33:44;6.20;99.90
7694;DHT22;3889;48.162;11.510;2022-12-29T04:36:12;6.20;99.90
7694;DHT22;3889;48.162;11.510;2022-12-29T04:38:40;6.30;99.90
7694;DHT22;3889;48.162;11.510;2022-12-29T04:41:09;6.30;99.90
7694;DHT22;3889;48.162;11.510;2022-12-29T04:43:37;6.30;99.90
7694;DHT22;3889;48.162;11.510;2022-12-29T04:46:05;6.40;99.90
7694;DHT22;3889;48.162;11.510;2022-12-29T04:48:33;6.40;99.90
7694;DHT22;3889;48.162;11.510;2022-12-29T04:51:01;6.30;99.90
7694;DHT22;3889;48.162;11.510;2022-12-29T04:53:29;6.40;99.90
7694;DHT22;3889;48.162;11.510;2022-12-29T04:55:56;6.40;99.90
7694;DHT22;3889;48.162;11.510;2022-12-29T04:58:26;6.40;99.90
7694;DHT22;3889;48.162;11.510;2022-12-29T05:00:53;6.40;99.90
7694;DHT22;3889;48.162;11.510;2022-12-29T05:03:21;6.40;99.90
7694;DHT22;3889;48.162;11.510;2022-12-29T05:05:52;6.50;99.90
7694;DHT22;3889;48.162;11.510;2022-12-29T05:08:20;6.40;99.90
7694;DHT22;3889;48.162;11.510;2022-12-29T05:10:53;6.50;99.90
7694;DHT22;3889;48.162;11.510;2022-12-29T05:13:21;6.50;99.90
7694;DHT22;3889;48.162;11.510;2022-12-29T05:15:51;6.50;99.90
7694;DHT22;3889;48.162;11.510;2022-12-29T05:18:20;6.50;99.90
7694;DHT22;3889;48.162;11.510;2022-12-29T05:20:48;6.50;99.90
7694;DHT22;3889;48.162;11.510;2022-12-29T05:23:16;6.50;99.90
7694;DHT22;3889;48.162;11.510;2022-12-29T05:25:44;6.50;99.90
7694;DHT22;3889;48.162;11.510;2022-12-29T05:28:13;6.50;99.90
7694;DHT22;3889;48.162;11.510;2022-12-29T05:30:40;6.50;99.90
7694;DHT22;3889;48.162;11.510;2022-12-29T05:33:10;6.50;99.90
7694;DHT22;3889;48.162;11.510;2022-12-29T05:35:38;6.50;99.90
7694;DHT22;3889;48.162;11.510;2022-12-29T05:38:06;6.50;99.90
7694;DHT22;3889;48.162;11.510;2022-12-29T05:40:34;6.50;99.90
7694;DHT22;3889;48.162;11.510;2022-12-29T05:43:02;6.50;99.90
7694;DHT22;3889;48.162;11.510;2022-12-29T05:45:29;6.50;99.90
7694;DHT22;3889;48.162;11.510;2022-12-29T05:47:57;6.50;99.90
7694;DHT22;3889;48.162;11.510;2022-12-29T05:50:26;6.50;99.90
7694;DHT22;3889;48.162;11.510;2022-12-29T05:52:54;6.50;99.90
7694;DHT22;3889;48.162;11.510;2022-12-29T05:55:22;6.60;99.90
7694;DHT22;3889;48.162;11.510;2022-12-29T05:57:50;6.60;99.90
7694;DHT22;3889;48.162;11.510;2022-12-29T06:00:18;6.60;99.90
7694;DHT22;3889;48.162;11.510;2022-12-29T06:02:46;6.60;99.90
7694;DHT22;3889;48.162;11.510;2022-12-29T06:05:14;6.60;99.90
7694;DHT22;3889;48.162;11.510;2022-12-29T06:07:43;6.60;99.90
7694;DHT22;3889;48.162;11.510;2022-12-29T06:10:12;6.60;99.90
7694;DHT22;3889;48.162;11.510;2022-12-29T06:12:40;6.60;99.90
7694;DHT22;3889;48.162;11.510;2022-12-29T06:15:09;6.60;99.90
7694;DHT22;3889;48.162;11.510;2022-12-29T06:17:36;6.70;99.90
7694;DHT22;3889;48.162;11.510;2022-12-29T06:20:05;6.60;99.90
7694;DHT22;3889;48.162;11.510;2022-12-29T06:22:33;6.60;99.90
7694;DHT22;3889;48.162;11.510;2022-12-29T06:25:03;6.60;99.90
7694;DHT22;3889;48.162;11.510;2022-12-29T06:27:32;6.60;99.90
7694;DHT22;3889;48.162;11.510;2022-12-29T06:30:00;6.60;99.90
7694;DHT22;3889;48.162;11.510;2022-12-29T06:32:27;6.60;99.90
7694;DHT22;3889;48.162;11.510;2022-12-29T06:34:56;6.60;99.90
7694;DHT22;3889;48.162;11.510;2022-12-29T06:37:24;6.60;99.90
7694;DHT22;3889;48.162;11.510;2022-12-29T06:39:51;6.60;99.90
7694;DHT22;3889;48.162;11.510;2022-12-29T06:42:20;6.60;99.90
7694;DHT22;3889;48.162;11.510;2022-12-29T06:44:48;6.60;99.90
7694;DHT22;3889;48.162;11.510;2022-12-29T06:47:16;6.50;99.90
7694;DHT22;3889;48.162;11.510;2022-12-29T06:49:45;6.60;99.90
7694;DHT22;3889;48.162;11.510;2022-12-29T06:52:13;6.60;99.90
7694;DHT22;3889;48.162;11.510;2022-12-29T06:54:40;6.60;99.90
7694;DHT22;3889;48.162;11.510;2022-12-29T06:57:08;6.60;99.90
7694;DHT22;3889;48.162;11.510;2022-12-29T06:59:38;6.50;99.90
7694;DHT22;3889;48.162;11.510;2022-12-29T07:02:05;6.60;99.90
7694;DHT22;3889;48.162;11.510;2022-12-29T07:04:33;6.50;99.90
7694;DHT22;3889;48.162;11.510;2022-12-29T07:07:01;6.50;99.90
7694;DHT22;3889;48.162;11.510;2022-12-29T07:09:29;6.50;99.90
7694;DHT22;3889;48.162;11.510;2022-12-29T07:11:57;6.60;99.90
7694;DHT22;3889;48.162;11.510;2022-12-29T07:14:25;6.60;99.90
7694;DHT22;3889;48.162;11.510;2022-12-29T07:16:54;6.60;99.90
7694;DHT22;3889;48.162;11.510;2022-12-29T07:19:22;6.60;99.90
7694;DHT22;3889;48.162;11.510;2022-12-29T07:21:50;6.60;99.90
7694;DHT22;3889;48.162;11.510;2022-12-29T07:24:18;6.70;99.90
7694;DHT22;3889;48.162;11.510;2022-12-29T07:26:46;6.70;99.90
7694;DHT22;3889;48.162;11.510;2022-12-29T07:29:14;6.70;99.90
7694;DHT22;3889;48.162;11.510;2022-12-29T07:31:41;6.70;99.90
7694;DHT22;3889;48.162;11.510;2022-12-29T07:34:11;6.60;99.90
7694;DHT22;3889;48.162;11.510;2022-12-29T07:36:39;6.60;99.90
7694;DHT22;3889;48.162;11.510;2022-12-29T07:39:06;6.60;99.90
7694;DHT22;3889;48.162;11.510;2022-12-29T07:41:34;6.60;99.90
7694;DHT22;3889;48.162;11.510;2022-12-29T07:44:02;6.60;99.90
7694;DHT22;3889;48.162;11.510;2022-12-29T07:46:30;6.60;99.90
7694;DHT22;3889;48.162;11.510;2022-12-29T07:49:20;6.60;99.90
7694;DHT22;3889;48.162;11.510;2022-12-29T07:51:47;6.60;99.90
7694;DHT22;3889;48.162;11.510;2022-12-29T07:54:15;6.70;99.90
7694;DHT22;3889;48.162;11.510;2022-12-29T07:56:44;6.80;99.90
7694;DHT22;3889;48.162;11.510;2022-12-29T07:59:12;6.80;99.90
7694;DHT22;3889;48.162;11.510;2022-12-29T08:01:40;7.00;99.90
7694;DHT22;3889;48.162;11.510;2022-12-29T08:04:08;7.10;99.90
7694;DHT22;3889;48.162;11.510;2022-12-29T08:06:38;7.20;99.90
7694;DHT22;3889;48.162;11.510;2022-12-29T08:09:06;7.30;99.90
7694;DHT22;3889;48.162;11.510;2022-12-29T08:11:43;7.40;99.90
7694;DHT22;3889;48.162;11.510;2022-12-29T08:14:11;7.40;99.90
7694;DHT22;3889;48.162;11.510;2022-12-29T08:16:39;7.50;99.90
7694;DHT22;3889;48.162;11.510;2022-12-29T08:19:09;7.50;99.90
7694;DHT22;3889;48.162;11.510;2022-12-29T08:21:39;7.50;99.90
7694;DHT22;3889;48.162;11.510;2022-12-29T08:24:08;7.50;99.90
7694;DHT22;3889;48.162;11.510;2022-12-29T08:26:36;7.50;99.90
7694;DHT22;3889;48.162;11.510;2022-12-29T08:29:04;7.60;99.90
7694;DHT22;3889;48.162;11.510;2022-12-29T08:31:32;7.60;99.90
7694;DHT22;3889;48.162;11.510;2022-12-29T08:34:00;7.60;99.90
7694;DHT22;3889;48.162;11.510;2022-12-29T08:36:30;7.70;99.90
7694;DHT22;3889;48.162;11.510;2022-12-29T08:38:59;7.70;99.90
7694;DHT22;3889;48.162;11.510;2022-12-29T08:41:27;7.90;99.90
7694;DHT22;3889;48.162;11.510;2022-12-29T08:43:55;8.00;99.90
7694;DHT22;3889;48.162;11.510;2022-12-29T08:46:23;8.20;99.90
7694;DHT22;3889;48.162;11.510;2022-12-29T08:48:51;8.30;99.90
7694;DHT22;3889;48.162;11.510;2022-12-29T08:51:20;8.40;99.90
7694;DHT22;3889;48.162;11.510;2022-12-29T08:53:50;8.50;99.90
7694;DHT22;3889;48.162;11.510;2022-12-29T08:56:20;8.50;99.90
7694;DHT22;3889;48.162;11.510;2022-12-29T08:58:50;8.50;99.90
7694;DHT22;3889;48.162;11.510;2022-12-29T09:01:18;8.60;99.90
7694;DHT22;3889;48.162;11.510;2022-12-29T09:03:47;8.60;99.90
7694;DHT22;3889;48.162;11.510;2022-12-29T09:06:35;8.60;99.90
7694;DHT22;3889;48.162;11.510;2022-12-29T09:09:06;8.60;99.90
7694;DHT22;3889;48.162;11.510;2022-12-29T09:11:36;8.70;99.90
7694;DHT22;3889;48.162;11.510;2022-12-29T09:14:04;8.80;99.90
7694;DHT22;3889;48.162;11.510;2022-12-29T09:16:32;8.90;99.90
7694;DHT22;3889;48.162;11.510;2022-12-29T09:19:00;8.90;99.90
7694;DHT22;3889;48.162;11.510;2022-12-29T09:21:28;9.00;99.90
7694;DHT22;3889;48.162;11.510;2022-12-29T09:23:56;9.10;99.90
7694;DHT22;3889;48.162;11.510;2022-12-29T09:26:24;9.10;99.90
7694;DHT22;3889;48.162;11.510;2022-12-29T09:28:53;9.20;99.90
7694;DHT22;3889;48.162;11.510;2022-12-29T09:31:21;9.20;99.90
7694;DHT22;3889;48.162;11.510;2022-12-29T09:33:49;9.30;99.90
7694;DHT22;3889;48.162;11.510;2022-12-29T09:36:17;9.40;99.90
7694;DHT22;3889;48.162;11.510;2022-12-29T09:38:45;9.50;99.90
7694;DHT22;3889;48.162;11.510;2022-12-29T09:41:20;9.60;99.90
7694;DHT22;3889;48.162;11.510;2022-12-29T09:44:03;9.70;99.90
7694;DHT22;3889;48.162;11.510;2022-12-29T09:46:37;9.70;99.90
7694;DHT22;3889;48.162;11.510;2022-12-29T09:49:12;9.80;99.90
7694;DHT22;3889;48.162;11.510;2022-12-29T09:51:44;9.90;99.90
7694;DHT22;3889;48.162;11.510;2022-12-29T09:54:23;10.00;99.90
7694;DHT22;3889;48.162;11.510;2022-12-29T09:56:52;10.30;99.90
7694;DHT22;3889;48.162;11.510;2022-12-29T09:59:25;10.50;99.90
7694;DHT22;3889;48.162;11.510;2022-12-29T10:01:59;10.40;99.90
7694;DHT22;3889;48.162;11.510;2022-12-29T10:04:32;10.40;99.90
7694;DHT22;3889;48.162;11.510;2022-12-29T10:07:04;10.40;99.90
7694;DHT22;3889;48.162;11.510;2022-12-29T10:10:03;10.40;99.90
7694;DHT22;3889;48.162;11.510;2022-12-29T10:12:49;10.40;99.90
7694;DHT22;3889;48.162;11.510;2022-12-29T10:15:32;10.40;99.90
7694;DHT22;3889;48.162;11.510;2022-12-29T10:18:08;10.30;99.90
7694;DHT22;3889;48.162;11.510;2022-12-29T10:20:48;10.40;99.90
7694;DHT22;3889;48.162;11.510;2022-12-29T10:23:25;10.40;99.90
7694;DHT22;3889;48.162;11.510;2022-12-29T10:25:55;10.30;99.90
7694;DHT22;3889;48.162;11.510;2022-12-29T10:28:28;10.30;99.90
7694;DHT22;3889;48.162;11.510;2022-12-29T10:31:01;10.40;99.90
7694;DHT22;3889;48.162;11.510;2022-12-29T10:33:37;10.40;99.90
7694;DHT22;3889;48.162;11.510;2022-12-29T10:36:14;10.30;99.90
7694;DHT22;3889;48.162;11.510;2022-12-29T10:38:48;10.40;99.90
7694;DHT22;3889;48.162;11.510;2022-12-29T10:41:23;10.40;99.90
7694;DHT22;3889;48.162;11.510;2022-12-29T10:43:53;10.50;99.90
7694;DHT22;3889;48.162;11.510;2022-12-29T10:46:24;10.60;99.90
7694;DHT22;3889;48.162;11.510;2022-12-29T10:48:55;10.60;99.90
7694;DHT22;3889;48.162;11.510;2022-12-29T10:51:25;10.60;99.90
7694;DHT22;3889;48.162;11.510;2022-12-29T10:53:58;10.70;99.90
7694;DHT22;3889;48.162;11.510;2022-12-29T10:56:31;10.70;99.90
7694;DHT22;3889;48.162;11.510;2022-12-29T10:59:06;10.70;99.90
7694;DHT22;3889;48.162;11.510;2022-12-29T11:01:46;10.80;99.90
7694;DHT22;3889;48.162;11.510;2022-12-29T11:04:35;10.90;99.90
7694;DHT22;3889;48.162;11.510;2022-12-29T11:07:06;10.90;99.90
7694;DHT22;3889;48.162;11.510;2022-12-29T11:09:41;11.00;99.90
7694;DHT22;3889;48.162;11.510;2022-12-29T11:12:22;11.00;99.90
7694;DHT22;3889;48.162;11.510;2022-12-29T11:15:06;11.10;99.90
7694;DHT22;3889;48.162;11.510;2022-12-29T11:17:45;11.20;99.90
7694;DHT22;3889;48.162;11.510;2022-12-29T11:20:34;11.20;99.90
7694;DHT22;3889;48.162;11.510;2022-12-29T11:23:04;11.40;99.90
7694;DHT22;3889;48.162;11.510;2022-12-29T11:25:32;11.50;99.90
7694;DHT22;3889;48.162;11.510;2022-12-29T11:28:01;11.50;99.90
7694;DHT22;3889;48.162;11.510;2022-12-29T11:30:31;11.60;99.90
7694;DHT22;3889;48.162;11.510;2022-12-29T11:33:03;11.70;99.90
7694;DHT22;3889;48.162;11.510;2022-12-29T11:35:33;11.70;99.90
7694;DHT22;3889;48.162;11.510;2022-12-29T11:38:02;11.90;99.90
7694;DHT22;3889;48.162;11.510;2022-12-29T11:40:32;12.00;99.90
7694;DHT22;3889;48.162;11.510;2022-12-29T11:43:06;12.00;99.90
7694;DHT22;3889;48.162;11.510;2022-12-29T11:45:35;12.00;99.90
7694;DHT22;3889;48.162;11.510;2022-12-29T11:48:09;11.90;99.90
7694;DHT22;3889;48.162;11.510;2022-12-29T11:50:42;11.90;99.90
7694;DHT22;3889;48.162;11.510;2022-12-29T11:53:19;11.90;99.90
7694;DHT22;3889;48.162;11.510;2022-12-29T11:55:53;11.80;99.90
7694;DHT22;3889;48.162;11.510;2022-12-29T11:58:28;11.90;99.90
7694;DHT22;3889;48.162;11.510;2022-12-29T12:01:01;11.90;99.90
7694;DHT22;3889;48.162;11.510;2022-12-29T12:03:32;11.90;99.90
7694;DHT22;3889;48.162;11.510;2022-12-29T12:06:03;11.90;99.90
7694;DHT22;3889;48.162;11.510;2022-12-29T12:08:34;11.90;99.90
7694;DHT22;3889;48.162;11.510;2022-12-29T12:11:09;11.90;99.90
7694;DHT22;3889;48.162;11.510;2022-12-29T12:13:42;11.90;99.90
7694;DHT22;3889;48.162;11.510;2022-12-29T12:16:16;11.90;99.90
7694;DHT22;3889;48.162;11.510;2022-12-29T12:18:49;12.00;99.90
7694;DHT22;3889;48.162;11.510;2022-12-29T12:21:25;12.10;99.90
7694;DHT22;3889;48.162;11.510;2022-12-29T12:24:15;12.10;99.90
7694;DHT22;3889;48.162;11.510;2022-12-29T12:26:58;12.20;99.90
7694;DHT22;3889;48.162;11.510;2022-12-29T12:29:34;12.20;99.90
7694;DHT22;3889;48.162;11.510;2022-12-29T12:32:11;12.20;99.90
7694;DHT22;3889;48.162;11.510;2022-12-29T12:34:44;12.30;99.90
7694;DHT22;3889;48.162;11.510;2022-12-29T12:40:25;12.60;99.90
7694;DHT22;3889;48.162;11.510;2022-12-29T12:43:12;12.70;99.90
7694;DHT22;3889;48.162;11.510;2022-12-29T12:45:51;12.80;99.90
7694;DHT22;3889;48.162;11.510;2022-12-29T12:51:18;12.90;99.90
7694;DHT22;3889;48.162;11.510;2022-12-29T12:54:00;12.80;99.90
7694;DHT22;3889;48.162;11.510;2022-12-29T12:56:51;12.80;99.90
7694;DHT22;3889;48.162;11.510;2022-12-29T12:59:33;12.70;99.90
7694;DHT22;3889;48.162;11.510;2022-12-29T13:02:13;12.70;99.90
7694;DHT22;3889;48.162;11.510;2022-12-29T13:05:02;12.70;99.90
7694;DHT22;3889;48.162;11.510;2022-12-29T13:07:40;12.70;99.90
7694;DHT22;3889;48.162;11.510;2022-12-29T13:10:25;12.70;99.90
7694;DHT22;3889;48.162;11.510;2022-12-29T13:13:13;12.60;99.90
7694;DHT22;3889;48.162;11.510;2022-12-29T13:15:47;12.60;99.90
7694;DHT22;3889;48.162;11.510;2022-12-29T13:18:22;12.50;99.90
7694;DHT22;3889;48.162;11.510;2022-12-29T13:20:55;12.40;99.90
7694;DHT22;3889;48.162;11.510;2022-12-29T13:23:35;12.40;99.90
7694;DHT22;3889;48.162;11.510;2022-12-29T13:26:11;12.40;99.90
7694;DHT22;3889;48.162;11.510;2022-12-29T13:28:50;12.30;99.90
7694;DHT22;3889;48.162;11.510;2022-12-29T13:31:28;12.20;99.90
7694;DHT22;3889;48.162;11.510;2022-12-29T13:34:05;12.20;99.90
7694;DHT22;3889;48.162;11.510;2022-12-29T13:36:40;12.20;99.90
7694;DHT22;3889;48.162;11.510;2022-12-29T13:39:13;12.20;99.90
7694;DHT22;3889;48.162;11.510;2022-12-29T13:41:49;12.20;99.90
7694;DHT22;3889;48.162;11.510;2022-12-29T13:44:22;12.20;99.90
7694;DHT22;3889;48.162;11.510;2022-12-29T13:46:51;12.20;99.90
7694;DHT22;3889;48.162;11.510;2022-12-29T13:49:22;12.10;99.90
7694;DHT22;3889;48.162;11.510;2022-12-29T13:51:53;12.10;99.90
7694;DHT22;3889;48.162;11.510;2022-12-29T13:54:30;12.00;99.90
7694;DHT22;3889;48.162;11.510;2022-12-29T13:57:09;11.90;99.90
7694;DHT22;3889;48.162;11.510;2022-12-29T13:59:44;11.90;99.90
7694;DHT22;3889;48.162;11.510;2022-12-29T14:02:30;11.90;99.90
7694;DHT22;3889;48.162;11.510;2022-12-29T14:05:02;11.80;99.90
7694;DHT22;3889;48.162;11.510;2022-12-29T14:07:36;11.80;99.90
7694;DHT22;3889;48.162;11.510;2022-12-29T14:10:27;11.70;99.90
7694;DHT22;3889;48.162;11.510;2022-12-29T14:13:03;11.70;99.90
7694;DHT22;3889;48.162;11.510;2022-12-29T14:15:31;11.60;99.90
7694;DHT22;3889;48.162;11.510;2022-12-29T14:18:13;11.50;99.90
7694;DHT22;3889;48.162;11.510;2022-12-29T14:20:53;11.60;99.90
7694;DHT22;3889;48.162;11.510;2022-12-29T14:23:28;11.60;99.90
7694;DHT22;3889;48.162;11.510;2022-12-29T14:26:00;11.80;99.90
7694;DHT22;3889;48.162;11.510;2022-12-29T14:28:37;11.70;99.90
7694;DHT22;3889;48.162;11.510;2022-12-29T14:31:34;11.70;99.90
7694;DHT22;3889;48.162;11.510;2022-12-29T14:34:27;11.70;99.90
7694;DHT22;3889;48.162;11.510;2022-12-29T14:36:57;11.60;99.90
7694;DHT22;3889;48.162;11.510;2022-12-29T14:39:33;11.50;99.90
7694;DHT22;3889;48.162;11.510;2022-12-29T14:42:05;11.40;99.90
7694;DHT22;3889;48.162;11.510;2022-12-29T14:44:34;11.30;99.90
7694;DHT22;3889;48.162;11.510;2022-12-29T14:47:17;11.20;99.90
7694;DHT22;3889;48.162;11.510;2022-12-29T14:49:47;11.10;99.90
7694;DHT22;3889;48.162;11.510;2022-12-29T14:52:18;11.10;99.90
7694;DHT22;3889;48.162;11.510;2022-12-29T14:54:52;11.10;99.90
7694;DHT22;3889;48.162;11.510;2022-12-29T14:57:33;11.00;99.90
7694;DHT22;3889;48.162;11.510;2022-12-29T15:00:14;11.00;99.90
7694;DHT22;3889;48.162;11.510;2022-12-29T15:02:48;10.80;99.90
7694;DHT22;3889;48.162;11.510;2022-12-29T15:05:27;10.80;99.90
7694;DHT22;3889;48.162;11.510;2022-12-29T15:07:56;10.80;99.90
7694;DHT22;3889;48.162;11.510;2022-12-29T15:10:27;10.70;99.90
7694;DHT22;3889;48.162;11.510;2022-12-29T15:13:04;10.70;99.90
7694;DHT22;3889;48.162;11.510;2022-12-29T15:15:37;10.50;99.90
7694;DHT22;3889;48.162;11.510;2022-12-29T15:18:15;10.50;99.90
7694;DHT22;3889;48.162;11.510;2022-12-29T15:20:51;10.40;99.90
7694;DHT22;3889;48.162;11.510;2022-12-29T15:23:21;10.30;99.90
7694;DHT22;3889;48.162;11.510;2022-12-29T15:25:54;10.20;99.90
7694;DHT22;3889;48.162;11.510;2022-12-29T15:28:23;10.10;99.90
7694;DHT22;3889;48.162;11.510;2022-12-29T15:30:53;10.10;99.90
7694;DHT22;3889;48.162;11.510;2022-12-29T15:33:26;10.00;99.90
7694;DHT22;3889;48.162;11.510;2022-12-29T15:35:56;9.70;99.90
7694;DHT22;3889;48.162;11.510;2022-12-29T15:38:26;9.70;99.90
7694;DHT22;3889;48.162;11.510;2022-12-29T15:41:06;9.50;99.90
7694;DHT22;3889;48.162;11.510;2022-12-29T15:43:42;9.50;99.90
7694;DHT22;3889;48.162;11.510;2022-12-29T15:46:13;9.50;99.90
7694;DHT22;3889;48.162;11.510;2022-12-29T15:48:43;9.30;99.90
7694;DHT22;3889;48.162;11.510;2022-12-29T15:51:18;9.30;99.90
7694;DHT22;3889;48.162;11.510;2022-12-29T15:53:47;9.40;99.90
7694;DHT22;3889;48.162;11.510;2022-12-29T15:56:17;9.30;99.90
7694;DHT22;3889;48.162;11.510;2022-12-29T15:58:47;9.30;99.90
7694;DHT22;3889;48.162;11.510;2022-12-29T16:01:18;9.30;99.90
7694;DHT22;3889;48.162;11.510;2022-12-29T16:03:50;9.20;99.90
7694;DHT22;3889;48.162;11.510;2022-12-29T16:06:28;9.10;99.90
7694;DHT22;3889;48.162;11.510;2022-12-29T16:08:58;9.00;99.90
7694;DHT22;3889;48.162;11.510;2022-12-29T16:11:30;9.00;99.90
7694;DHT22;3889;48.162;11.510;2022-12-29T16:14:00;8.90;99.90
7694;DHT22;3889;48.162;11.510;2022-12-29T16:16:31;8.80;99.90
7694;DHT22;3889;48.162;11.510;2022-12-29T16:19:06;8.80;99.90
7694;DHT22;3889;48.162;11.510;2022-12-29T16:21:37;8.80;99.90
7694;DHT22;3889;48.162;11.510;2022-12-29T16:24:08;8.80;99.90
7694;DHT22;3889;48.162;11.510;2022-12-29T16:26:46;8.60;99.90
7694;DHT22;3889;48.162;11.510;2022-12-29T16:29:15;8.60;99.90
7694;DHT22;3889;48.162;11.510;2022-12-29T16:31:50;8.60;99.90
7694;DHT22;3889;48.162;11.510;2022-12-29T16:34:25;8.60;99.90
7694;DHT22;3889;48.162;11.510;2022-12-29T16:36:54;8.60;99.90